createdAt,value
2023-05-28T00:00:47.885Z,8.71
2023-05-28T00:06:11.870Z,8.65
2023-05-28T00:11:15.277Z,8.59
2023-05-28T00:16:18.854Z,8.52
2023-05-28T00:21:22.411Z,8.44
2023-05-28T00:26:27.230Z,8.38
2023-05-28T00:31:30.865Z,8.32
2023-05-28T00:36:34.403Z,8.24
2023-05-28T00:41:38.211Z,8.15
2023-05-28T00:46:46.235Z,8.05
2023-05-28T00:51:50.575Z,7.98
2023-05-28T00:56:54.800Z,7.91
2023-05-28T01:01:59.140Z,7.81
2023-05-28T01:07:02.913Z,7.75
2023-05-28T01:12:08.614Z,7.66
2023-05-28T01:17:13.653Z,7.59
2023-05-28T01:22:22.204Z,7.52
2023-05-28T01:27:26.327Z,7.43
2023-05-28T01:32:29.875Z,7.37
2023-05-28T01:37:36.753Z,7.32
2023-05-28T01:42:40.621Z,7.28
2023-05-28T01:47:45.056Z,7.25
2023-05-28T01:52:48.420Z,7.21
2023-05-28T01:57:52.138Z,7.15
2023-05-28T02:02:55.730Z,7.09
2023-05-28T02:08:00.196Z,7.07
2023-05-28T02:13:04.852Z,7.04
2023-05-28T02:18:11.816Z,6.99
2023-05-28T02:23:15.760Z,6.97
2023-05-28T02:28:19.174Z,6.98
2023-05-28T02:33:23.513Z,7.07
2023-05-28T02:38:26.821Z,7.06
2023-05-28T02:43:30.344Z,7.12
2023-05-28T02:48:34.107Z,7.17
2023-05-28T02:53:37.731Z,7.27
2023-05-28T02:58:41.391Z,7.35
2023-05-28T03:03:45.028Z,7.46
2023-05-28T03:08:48.627Z,7.60
2023-05-28T03:13:52.444Z,7.74
2023-05-28T03:18:55.968Z,7.96
2023-05-28T03:23:59.480Z,8.14
2023-05-28T03:29:03.110Z,8.30
2023-05-28T03:34:06.719Z,8.45
2023-05-28T03:39:11.161Z,8.60
2023-05-28T03:44:14.667Z,8.77
2023-05-28T03:49:18.200Z,8.96
2023-05-28T03:54:21.802Z,9.15
2023-05-28T03:59:25.316Z,9.36
2023-05-28T04:04:29.107Z,9.57
2023-05-28T04:09:32.876Z,9.81
2023-05-28T04:14:36.477Z,10.05
2023-05-28T04:19:41.114Z,10.27
2023-05-28T04:24:45.248Z,10.49
2023-05-28T04:29:49.172Z,10.72
2023-05-28T04:34:54.743Z,10.97
2023-05-28T04:39:58.362Z,11.24
2023-05-28T04:45:02.480Z,11.50
2023-05-28T04:50:07.549Z,11.77
2023-05-28T04:55:11.462Z,12.02
2023-05-28T05:00:15.451Z,12.32
2023-05-28T05:05:19.004Z,12.58
2023-05-28T05:10:22.624Z,12.80
2023-05-28T05:15:26.344Z,13.06
2023-05-28T05:20:31.314Z,13.36
2023-05-28T05:25:34.928Z,13.61
2023-05-28T05:30:39.142Z,13.84
2023-05-28T05:35:42.348Z,14.07
2023-05-28T05:40:45.871Z,14.31
2023-05-28T05:45:49.496Z,14.56
2023-05-28T05:50:57.146Z,14.80
2023-05-28T05:56:00.613Z,15.06
2023-05-28T06:01:04.678Z,15.29
2023-05-28T06:06:08.204Z,15.54
2023-05-28T06:11:11.779Z,15.80
2023-05-28T06:16:15.285Z,16.04
2023-05-28T06:21:19.501Z,16.32
2023-05-28T06:26:23.803Z,16.53
2023-05-28T06:31:27.511Z,16.78
2023-05-28T06:36:30.984Z,16.98
2023-05-28T06:41:34.465Z,17.17
2023-05-28T06:46:38.060Z,17.35
2023-05-28T06:51:41.735Z,17.50
2023-05-28T06:56:45.763Z,17.63
2023-05-28T07:01:49.312Z,17.79
2023-05-28T07:06:54.842Z,17.94
2023-05-28T07:11:58.383Z,18.12
2023-05-28T07:17:02.065Z,18.30
2023-05-28T07:22:05.920Z,18.50
2023-05-28T07:27:09.272Z,18.68
2023-05-28T07:32:12.886Z,18.77
2023-05-28T07:37:16.653Z,18.94
2023-05-28T07:42:21.010Z,19.09
2023-05-28T07:47:24.624Z,19.05
2023-05-28T07:52:30.892Z,19.12
2023-05-28T07:57:34.606Z,19.19
2023-05-28T08:02:38.047Z,19.10
2023-05-28T08:07:41.948Z,19.16
2023-05-28T08:12:45.463Z,19.34
2023-05-28T08:17:48.999Z,19.49
2023-05-28T08:22:52.392Z,19.59
2023-05-28T08:27:56.008Z,19.63
2023-05-28T08:32:59.458Z,19.60
2023-05-28T08:38:03.343Z,19.67
2023-05-28T08:43:06.857Z,19.72
2023-05-28T08:48:12.347Z,19.72
2023-05-28T08:53:24.753Z,19.74
2023-05-28T08:58:29.496Z,19.72
2023-05-28T09:03:34.915Z,19.84
2023-05-28T09:08:38.374Z,19.95
2023-05-28T09:13:46.998Z,20.08
2023-05-28T09:19:04.068Z,20.36
2023-05-28T09:24:07.752Z,20.51
2023-05-28T09:29:14.551Z,20.53
2023-05-28T09:34:19.798Z,20.52
2023-05-28T09:39:27.677Z,20.62
2023-05-28T09:44:35.808Z,20.74
2023-05-28T09:49:39.357Z,20.73
2023-05-28T09:54:43.079Z,20.48
2023-05-28T09:59:49.553Z,20.65
2023-05-28T10:04:58.260Z,20.82
2023-05-28T10:10:03.920Z,20.95
2023-05-28T10:15:08.836Z,21.08
2023-05-28T10:20:13.124Z,21.33
2023-05-28T10:25:17.484Z,21.46
2023-05-28T10:30:38.918Z,21.41
2023-05-28T10:35:55.085Z,21.52
2023-05-28T10:41:03.109Z,21.52
2023-05-28T10:46:24.734Z,21.64
2023-05-28T10:51:45.109Z,21.94
2023-05-28T10:57:16.299Z,22.10
2023-05-28T11:02:28.858Z,22.16
2023-05-28T11:07:35.206Z,22.24
2023-05-28T11:12:41.038Z,22.29
2023-05-28T11:17:46.917Z,22.40
2023-05-28T11:22:50.644Z,22.48
2023-05-28T11:27:55.187Z,22.49
2023-05-28T11:33:03.730Z,22.68
2023-05-28T11:38:07.332Z,22.89
2023-05-28T11:43:10.844Z,22.76
2023-05-28T11:48:14.684Z,22.73
2023-05-28T11:53:18.186Z,22.81
2023-05-28T11:58:31.816Z,23.01
2023-05-28T12:03:36.245Z,23.04
2023-05-28T12:08:41.431Z,23.03
2023-05-28T12:13:44.939Z,23.31
2023-05-28T12:18:48.561Z,23.69
2023-05-28T12:23:52.078Z,24.02
2023-05-28T12:28:55.797Z,24.02
2023-05-28T12:33:59.311Z,23.89
2023-05-28T12:39:03.185Z,23.92
2023-05-28T12:44:06.750Z,24.17
2023-05-28T12:49:10.470Z,24.51
2023-05-28T12:54:13.886Z,24.74
2023-05-28T12:59:25.588Z,24.90
2023-05-28T13:04:29.314Z,25.17
2023-05-28T13:09:32.927Z,25.24
2023-05-28T13:14:36.967Z,25.22
2023-05-28T13:19:40.472Z,25.34
2023-05-28T13:24:47.634Z,25.66
2023-05-28T13:29:51.499Z,26.00
2023-05-28T13:34:55.115Z,26.25
2023-05-28T13:39:58.939Z,26.84
2023-05-28T13:45:02.456Z,28.93
2023-05-28T13:50:07.202Z,32.50
2023-05-28T13:55:10.822Z,36.10
2023-05-28T14:00:23.057Z,38.83
2023-05-28T14:05:38.287Z,41.77
2023-05-28T14:10:42.271Z,44.42
2023-05-28T14:15:45.981Z,46.82
2023-05-28T14:20:49.481Z,50.01
2023-05-28T14:25:53.365Z,52.82
2023-05-28T14:30:57.488Z,54.92
2023-05-28T14:36:14.757Z,56.51
2023-05-28T14:41:19.637Z,57.27
2023-05-28T14:46:23.204Z,58.58
2023-05-28T14:51:27.681Z,59.61
2023-05-28T14:56:31.502Z,60.17
2023-05-28T15:01:34.882Z,60.24
2023-05-28T15:06:38.534Z,59.64
2023-05-28T15:11:42.047Z,59.75
2023-05-28T15:16:46.417Z,59.96
2023-05-28T15:21:50.920Z,59.74
2023-05-28T15:26:54.639Z,59.72
2023-05-28T15:32:01.646Z,59.18
2023-05-28T15:37:05.963Z,59.34
2023-05-28T15:42:10.121Z,59.59
2023-05-28T15:47:13.621Z,59.51
2023-05-28T15:52:17.437Z,59.20
2023-05-28T15:57:21.269Z,58.71
2023-05-28T16:02:26.068Z,58.32
2023-05-28T16:07:29.942Z,57.55
2023-05-28T16:12:37.509Z,57.04
2023-05-28T16:17:43.762Z,56.06
2023-05-28T16:22:47.866Z,55.09
2023-05-28T16:27:54.655Z,54.81
2023-05-28T16:33:01.590Z,54.24
2023-05-28T16:38:07.400Z,54.05
2023-05-28T16:43:11.187Z,53.49
2023-05-28T16:48:15.211Z,52.82
2023-05-28T16:53:19.193Z,51.27
2023-05-28T16:58:22.705Z,50.66
2023-05-28T17:03:26.446Z,50.31
2023-05-28T17:08:31.375Z,49.08
2023-05-28T17:13:34.889Z,48.15
2023-05-28T17:18:40.326Z,47.38
2023-05-28T17:23:46.528Z,46.68
2023-05-28T17:28:50.042Z,45.84
2023-05-28T17:33:53.558Z,45.02
2023-05-28T17:39:00.729Z,43.92
2023-05-28T17:44:05.001Z,42.50
2023-05-28T17:49:09.136Z,41.25
2023-05-28T17:54:14.343Z,39.92
2023-05-28T17:59:18.420Z,38.79
2023-05-28T18:04:22.540Z,37.44
2023-05-28T18:09:26.568Z,35.97
2023-05-28T18:14:31.861Z,34.79
2023-05-28T18:19:35.440Z,33.54
2023-05-28T18:24:39.058Z,32.15
2023-05-28T18:29:43.094Z,30.40
2023-05-28T18:34:46.605Z,28.78
2023-05-28T18:39:54.328Z,27.30
2023-05-28T18:44:59.064Z,26.15
2023-05-28T18:50:04.017Z,25.14
2023-05-28T18:55:08.093Z,24.07
2023-05-28T19:00:12.073Z,23.03
2023-05-28T19:05:15.788Z,22.00
2023-05-28T19:10:19.726Z,21.11
2023-05-28T19:15:23.592Z,20.34
2023-05-28T19:20:27.597Z,19.65
2023-05-28T19:25:31.387Z,18.96
2023-05-28T19:30:35.004Z,18.42
2023-05-28T19:35:38.315Z,17.85
2023-05-28T19:40:42.335Z,17.37
2023-05-28T19:45:47.546Z,16.98
2023-05-28T19:50:51.545Z,16.61
2023-05-28T19:55:54.934Z,16.23
2023-05-28T20:00:58.654Z,15.88
2023-05-28T20:06:02.273Z,15.64
2023-05-28T20:11:05.652Z,15.38
2023-05-28T20:16:09.259Z,15.15
2023-05-28T20:21:13.248Z,14.92
2023-05-28T20:26:17.160Z,14.73
2023-05-28T20:31:20.993Z,14.55
2023-05-28T20:36:24.600Z,14.36
2023-05-28T20:41:28.219Z,14.21
2023-05-28T20:46:31.665Z,14.07
2023-05-28T20:51:36.371Z,13.91
2023-05-28T20:56:41.585Z,13.75
2023-05-28T21:01:48.278Z,13.59
2023-05-28T21:06:51.829Z,13.38
2023-05-28T21:11:55.344Z,13.17
2023-05-28T21:17:02.857Z,12.96
2023-05-28T21:22:07.393Z,12.75
2023-05-28T21:27:11.378Z,12.53
2023-05-28T21:32:15.854Z,12.29
2023-05-28T21:37:20.906Z,12.04
2023-05-28T21:42:24.528Z,11.89
2023-05-28T21:47:28.151Z,11.79
2023-05-28T21:52:34.020Z,11.77
2023-05-28T21:57:39.379Z,11.71
2023-05-28T22:02:44.205Z,11.69
2023-05-28T22:07:48.556Z,11.65
2023-05-28T22:12:52.494Z,11.60
2023-05-28T22:17:56.882Z,11.51
2023-05-28T22:23:00.440Z,11.45
2023-05-28T22:28:04.270Z,11.38
2023-05-28T22:33:07.914Z,11.35
2023-05-28T22:38:11.955Z,11.25
2023-05-28T22:43:15.835Z,11.10
2023-05-28T22:48:20.892Z,10.97
2023-05-28T22:53:24.512Z,10.86
2023-05-28T22:58:28.125Z,10.75
2023-05-28T23:03:32.372Z,10.59
2023-05-28T23:08:35.968Z,10.49
2023-05-28T23:13:39.589Z,10.34
2023-05-28T23:18:43.511Z,10.22
2023-05-28T23:23:47.540Z,10.15
2023-05-28T23:28:52.449Z,10.05
2023-05-28T23:33:55.906Z,10.02
2023-05-28T23:38:59.517Z,10.04
2023-05-28T23:44:04.376Z,10.02
2023-05-28T23:49:09.931Z,9.95
2023-05-28T23:54:13.450Z,9.87
2023-05-28T23:59:16.960Z,9.77
